Time;durP1;ratioP1;P1;durP2;ratioP2;P2;SDS_P1;SDS_P2;PMS_P1;PMS_P2;Temp;Humidity;BMP_temperature;BMP_pressure;BME280_temperature;BME280_humidity;BME280_pressure;Samples;Min_cycle;Max_cycle;Signal;HPM_P1;HPM_P2
2022/08/18 00:03:47;;;;;;;3.67;3.38;;;;;;;20.73;61.11;99413.16;10499992;28;20446;-71
2022/08/18 00:09:03;;;;;;;3.65;3.05;;;;;;;20.86;62.05;99406.66;10499685;28;20032;-71
2022/08/18 00:14:05;;;;;;;;;;;;;;;21.11;59.80;99396.56;10499535;28;20051;-71
2022/08/18 00:19:07;;;;;;;3.85;3.55;;;;;;;20.70;62.07;99394.72;10499025;28;19966;-72
2022/08/18 00:24:10;;;;;;;3.83;3.20;;;;;;;20.56;62.49;99404.72;10498586;28;20044;-72
2022/08/18 00:29:12;;;;;;;3.58;3.28;;;;;;;20.75;62.61;99413.88;10500999;28;20421;-72
2022/08/18 00:34:13;;;;;;;4.45;3.50;;;;;;;20.81;62.24;99416.91;10506539;28;20123;-72
2022/08/18 00:39:15;;;;;;;3.92;3.40;;;;;;;20.97;62.00;99419.09;10506551;28;20528;-72
2022/08/18 00:44:17;;;;;;;4.70;3.65;;;;;;;20.73;62.10;99414.00;10506769;28;20047;-72
2022/08/18 00:49:18;;;;;;;3.78;3.47;;;;;;;20.63;61.91;99413.94;10504998;28;20071;-71
2022/08/18 00:54:26;;;;;;;3.53;3.22;;;;;;;20.68;62.36;99418.06;10487230;28;20481;-72
2022/08/18 00:59:30;;;;;;;4.10;3.70;;;;;;;20.49;62.70;99424.06;10506448;28;20266;-71
2022/08/18 01:04:43;;;;;;;4.28;3.35;;;;;;;20.40;63.43;99423.78;10504809;28;20127;-72
2022/08/18 01:09:50;;;;;;;4.13;3.72;;;;;;;20.39;63.02;99422.09;10508490;28;20537;-73
2022/08/18 01:14:53;;;;;;;4.70;3.83;;;;;;;20.69;64.12;99425.09;10506089;28;20504;-72
2022/08/18 01:30:48;;;;;;;5.10;3.88;;;;;;;20.23;64.36;99415.47;10462058;28;20390;-69
2022/08/18 01:35:50;;;;;;;3.80;3.50;;;;;;;20.10;65.00;99421.00;10485208;28;20508;-69
2022/08/18 01:40:53;;;;;;;3.97;3.67;;;;;;;20.10;65.18;99419.16;10502830;28;20443;-69
2022/08/18 01:46:20;;;;;;;4.15;3.85;;;;;;;20.32;64.96;99417.38;10502781;28;20045;-69
2022/08/18 01:51:21;;;;;;;4.53;4.13;;;;;;;20.47;64.04;99424.16;10505377;28;20036;-69
2022/08/18 01:56:41;;;;;;;3.90;3.60;;;;;;;20.16;64.35;99423.16;10502350;28;20043;-69
2022/08/18 02:01:46;;;;;;;4.30;4.05;;;;;;;20.15;64.68;99419.63;10502512;28;20162;-69
2022/08/18 02:06:54;;;;;;;6.53;4.20;;;;;;;19.91;65.53;99419.78;10503106;28;20048;-69
2022/08/18 02:11:58;;;;;;;5.10;4.70;;;;;;;20.09;65.39;99409.44;10503377;28;20119;-69
2022/08/18 02:17:02;;;;;;;4.50;4.10;;;;;;;20.01;65.99;99422.56;10501491;28;20140;-69
2022/08/18 02:22:05;;;;;;;4.43;4.03;;;;;;;20.00;66.63;99426.19;10500979;28;20048;-70
2022/08/18 02:27:08;;;;;;;5.05;4.65;;;;;;;20.19;65.83;99422.03;10500498;28;20533;-69
2022/08/18 02:32:10;;;;;;;4.43;4.10;;;;;;;20.37;65.73;99421.41;10484244;28;20056;-69
2022/08/18 02:37:12;;;;;;;4.68;4.28;;;;;;;20.44;64.86;99416.38;10500907;28;20486;-70
2022/08/18 02:42:16;;;;;;;5.03;4.70;;;;;;;20.58;63.61;99409.94;10483060;28;20136;-69
2022/08/18 02:47:19;;;;;;;4.85;4.45;;;;;;;20.23;65.32;99403.00;10482348;28;20413;-69
2022/08/18 02:52:22;;;;;;;4.53;4.13;;;;;;;20.09;66.55;99396.09;10500187;28;20040;-69
2022/08/18 02:57:23;;;;;;;4.40;4.10;;;;;;;20.07;66.70;99390.06;10467229;28;20040;-69
2022/08/18 03:02:25;;;;;;;4.45;4.05;;;;;;;20.17;67.15;99385.66;10482058;28;20036;-69
2022/08/18 03:07:27;;;;;;;4.65;4.25;;;;;;;20.09;67.24;99390.75;10482274;28;20041;-69
2022/08/18 03:12:29;;;;;;;5.07;4.57;;;;;;;20.39;65.61;99395.41;10500002;28;20079;-69
2022/08/18 03:17:34;;;;;;;4.68;4.38;;;;;;;20.38;64.50;99392.88;10502145;28;20033;-69
2022/08/18 03:22:36;;;;;;;5.45;4.88;;;;;;;20.16;65.01;99397.31;10501520;28;20053;-69
2022/08/18 03:27:40;;;;;;;6.90;5.32;;;;;;;20.01;65.60;99393.22;10500812;28;20078;-69
2022/08/18 03:32:42;;;;;;;5.88;5.47;;;;;;;20.14;65.57;99395.72;10500120;28;20094;-69
2022/08/18 03:37:46;;;;;;;5.45;5.05;;;;;;;20.14;65.14;99393.94;10500405;28;20068;-69
2022/08/18 03:42:48;;;;;;;7.32;6.28;;;;;;;19.83;67.05;99386.69;10499853;28;20045;-69
2022/08/18 03:47:52;;;;;;;6.57;6.13;;;;;;;19.78;67.37;99386.22;10482117;28;20045;-69
2022/08/18 03:52:54;;;;;;;6.78;6.15;;;;;;;20.03;65.80;99388.59;10499748;28;20071;-70
2022/08/18 03:58:02;;;;;;;6.93;5.80;;;;;;;20.08;65.83;99390.91;10498834;28;20041;-69
2022/08/18 04:03:04;;;;;;;6.63;6.03;;;;;;;19.93;66.42;99393.00;10500947;28;20548;-69
2022/08/18 04:08:06;;;;;;;11.75;5.80;;;;;;;19.71;67.45;99398.34;10506887;28;20064;-69
2022/08/18 04:13:07;;;;;;;8.50;5.93;;;;;;;19.61;68.10;99404.44;10489012;28;20060;-69
2022/08/18 04:18:10;;;;;;;6.68;6.07;;;;;;;19.51;69.19;99416.72;10488786;28;20056;-69
2022/08/18 04:23:13;;;;;;;7.22;6.47;;;;;;;19.49;69.47;99407.19;10507458;28;20049;-69
2022/08/18 04:28:15;;;;;;;6.63;6.03;;;;;;;19.88;68.62;99403.19;10488414;28;20131;-69
2022/08/18 04:33:16;;;;;;;7.00;6.30;;;;;;;19.88;67.41;99409.38;10506226;28;20056;-69
2022/08/18 04:38:18;;;;;;;7.35;6.60;;;;;;;19.68;68.57;99411.94;10505730;28;20086;-70
2022/08/18 04:43:20;;;;;;;6.90;6.40;;;;;;;19.60;68.94;99408.03;10507629;28;20463;-70
2022/08/18 04:48:22;;;;;;;7.18;6.53;;;;;;;19.68;69.23;99412.78;10506077;28;20539;-70
2022/08/18 04:58:44;;;;;;;8.15;7.32;;;;;;;19.60;69.64;99423.16;10506034;28;20069;-70
2022/08/18 05:03:52;;;;;;;7.32;6.72;;;;;;;19.71;69.58;99417.03;10487764;28;20052;-70
2022/08/18 05:08:57;;;;;;;6.78;6.13;;;;;;;19.87;69.24;99430.81;10506855;28;20472;-70
2022/08/18 05:14:02;;;;;;;7.07;6.47;;;;;;;20.06;67.76;99423.06;10504016;28;20051;-70
2022/08/18 05:19:10;;;;;;;6.20;5.70;;;;;;;20.25;67.00;99426.88;10505210;28;20044;-71
2022/08/18 05:24:12;;;;;;;7.22;6.50;;;;;;;20.23;66.78;99426.16;10504747;28;20040;-71
2022/08/18 05:29:15;;;;;;;6.90;6.40;;;;;;;20.21;65.92;99428.09;10504285;28;20047;-70
2022/08/18 05:34:20;;;;;;;7.40;6.63;;;;;;;20.30;64.37;99430.03;10503920;28;20050;-70
2022/08/18 05:39:36;;;;;;;6.65;6.05;;;;;;;20.45;65.23;99435.91;10485398;28;20078;-70
2022/08/18 05:44:44;;;;;;;11.73;6.00;;;;;;;20.71;64.04;99426.63;10503407;28;20119;-70
2022/08/18 05:49:47;;;;;;;7.30;5.97;;;;;;;21.00;64.42;99429.53;10504051;28;20067;-70
2022/08/18 06:00:22;;;;;;;6.53;5.85;;;;;;;21.31;60.94;99429.59;10502051;28;20041;-70
2022/08/18 06:05:31;;;;;;;7.18;6.35;;;;;;;21.77;58.91;99439.00;10502782;28;20107;-71
2022/08/18 06:10:34;;;;;;;6.40;5.80;;;;;;;22.81;55.55;99433.19;10485136;28;20044;-68
2022/08/18 06:15:44;;;;;;;6.47;5.43;;;;;;;23.07;54.65;99420.09;10501810;28;20561;-69
2022/08/18 06:20:49;;;;;;;5.88;5.20;;;;;;;24.10;52.64;99424.56;10501922;28;20547;-69
2022/08/18 06:26:04;;;;;;;6.32;5.70;;;;;;;24.67;49.31;99425.19;10483141;28;20120;-70
2022/08/18 06:31:14;;;;;;;6.37;5.03;;;;;;;25.16;48.67;99420.25;10484379;28;20040;-70
2022/08/18 06:36:37;;;;;;;5.05;4.10;;;;;;;25.52;47.95;99419.28;10504946;28;20054;-71
2022/08/18 06:41:47;;;;;;;7.47;5.35;;;;;;;25.75;47.08;99424.97;10502053;28;20123;-72
2022/08/18 06:47:14;;;;;;;4.82;4.38;;;;;;;26.43;45.88;99419.53;10501425;28;20047;-72
2022/08/18 06:52:33;;;;;;;5.43;4.22;;;;;;;26.65;45.62;99413.53;10481576;28;20549;-72
2022/08/18 06:57:38;;;;;;;6.78;4.60;;;;;;;26.91;43.50;99417.91;10500110;28;20048;-71
2022/08/18 07:02:49;;;;;;;5.03;3.40;;;;;;;27.13;43.45;99421.81;10500259;28;20094;-70
2022/08/18 07:08:30;;;;;;;4.28;3.47;;;;;;;27.21;43.52;99424.50;10501686;28;20047;-72
2022/08/18 07:13:37;;;;;;;6.47;4.15;;;;;;;27.32;42.20;99431.41;10481712;28;20055;-71
2022/08/18 07:18:42;;;;;;;11.52;3.90;;;;;;;26.95;43.63;99435.44;10500531;28;20082;-72
2022/08/18 07:24:01;;;;;;;5.63;3.65;;;;;;;26.77;43.61;99432.06;10499056;28;20060;-71
2022/08/18 07:29:23;;;;;;;6.20;4.10;;;;;;;26.82;42.98;99427.84;10484198;23;20047;-75
2022/08/18 07:34:37;;;;;;;5.65;3.67;;;;;;;27.02;43.09;99431.06;10473441;28;20044;-76
2022/08/18 07:39:45;;;;;;;4.72;3.25;;;;;;;26.91;42.61;99434.09;10501336;28;20044;-76
2022/08/18 07:44:58;;;;;;;4.18;3.50;;;;;;;27.34;42.52;99440.16;10502436;28;20049;-76
2022/08/18 07:50:02;;;;;;;9.23;4.32;;;;;;;27.34;43.25;99441.00;10502261;28;20044;-76
2022/08/18 07:55:31;;;;;;;3.72;3.42;;;;;;;27.33;42.56;99457.38;10502601;28;20044;-75
2022/08/18 08:00:56;;;;;;;4.38;3.35;;;;;;;27.87;40.92;99452.22;10504633;28;20072;-76
2022/08/18 08:06:27;;;;;;;6.38;3.20;;;;;;;27.62;42.30;99444.16;10484174;28;20116;-76
2022/08/18 08:11:37;;;;;;;4.20;3.00;;;;;;;27.87;41.15;99452.22;10499259;28;20132;-76
2022/08/18 08:16:49;;;;;;;3.40;3.20;;;;;;;27.94;41.02;99442.41;10499607;28;20413;-76
2022/08/18 08:22:15;;;;;;;3.50;3.20;;;;;;;28.05;42.26;99446.59;10499472;28;20040;-76
2022/08/18 08:27:59;;;;;;;5.35;4.20;;;;;;;27.61;42.31;99452.44;10499384;28;20048;-75
2022/08/18 08:33:16;;;;;;;4.90;3.77;;;;;;;28.12;42.20;99463.78;10497751;28;20049;-74
2022/08/18 08:38:28;;;;;;;3.25;3.05;;;;;;;28.09;41.34;99456.88;10499002;28;20052;-75
2022/08/18 08:43:52;;;;;;;6.57;3.88;;;;;;;28.91;39.55;99451.03;10498670;28;20120;-76
2022/08/18 08:49:19;;;;;;;5.53;3.40;;;;;;;29.56;38.49;99455.03;10499421;28;20048;-76
2022/08/18 08:54:48;;;;;;;3.33;2.88;;;;;;;29.73;38.30;99442.16;10488070;28;20045;-75
2022/08/18 08:59:51;;;;;;;7.15;3.35;;;;;;;30.08;37.48;99444.13;10507200;28;20037;-75
2022/08/18 09:05:22;;;;;;;3.75;3.13;;;;;;;29.85;37.04;99437.97;10506103;28;20405;-75
2022/08/18 09:10:56;;;;;;;5.00;3.83;;;;;;;29.90;36.51;99416.56;10503678;28;20083;-75
2022/08/18 09:16:09;;;;;;;4.40;3.70;;;;;;;30.23;36.51;99413.47;10503885;28;20509;-75
2022/08/18 09:21:29;;;;;;;4.32;2.92;;;;;;;30.47;35.97;99423.13;10487106;28;20045;-75
2022/08/18 09:26:37;;;;;;;5.88;3.33;;;;;;;30.65;35.97;99401.81;10505506;28;20083;-75
2022/08/18 09:31:42;;;;;;;5.18;3.63;;;;;;;30.63;36.12;99403.88;10506725;28;20043;-74
2022/08/18 09:36:58;;;;;;;5.10;3.17;;;;;;;30.29;37.42;99407.28;10505720;28;20044;-75
2022/08/18 09:42:27;;;;;;;4.13;3.15;;;;;;;29.65;37.34;99395.19;10508207;28;20044;-75
2022/08/18 09:47:53;;;;;;;3.47;3.17;;;;;;;30.03;37.22;99392.34;10486853;28;20485;-74
2022/08/18 09:53:14;;;;;;;5.63;3.25;;;;;;;29.53;37.05;99391.25;10487927;28;20048;-75
2022/08/18 09:58:51;;;;;;;3.28;2.67;;;;;;;29.54;37.25;99376.69;10504000;28;20455;-74
2022/08/18 10:04:19;;;;;;;4.93;4.05;;;;;;;29.57;37.77;99370.94;10484726;28;20048;-75
2022/08/18 10:09:32;;;;;;;5.22;3.42;;;;;;;29.53;37.63;99368.72;10485993;28;20410;-75
2022/08/18 10:14:59;;;;;;;5.07;3.92;;;;;;;29.13;38.05;99376.25;10484628;28;20048;-75
2022/08/18 10:20:07;;;;;;;3.58;3.28;;;;;;;29.39;38.88;99375.81;10506529;28;20397;-75
2022/08/18 10:25:41;;;;;;;8.05;3.55;;;;;;;29.53;38.98;99379.56;10507290;28;20052;-75
2022/08/18 10:30:46;;;;;;;5.20;3.25;;;;;;;29.21;39.54;99388.88;10488174;28;20040;-75
2022/08/18 10:36:08;;;;;;;8.10;3.33;;;;;;;29.25;39.78;99388.31;10487431;28;20559;-75
2022/08/18 10:41:30;;;;;;;6.60;3.08;;;;;;;29.10;40.12;99384.75;10486885;28;20040;-74
2022/08/18 10:46:39;;;;;;;8.95;3.60;;;;;;;29.24;39.97;99374.97;10500427;28;20044;-75
2022/08/18 10:51:57;;;;;;;;;;;;;;;29.24;39.30;99380.38;10501984;28;20040;-75
2022/08/18 10:57:21;;;;;;;6.82;3.47;;;;;;;29.39;38.23;99375.81;10501780;28;19926;-75
2022/08/18 11:02:34;;;;;;;3.00;2.67;;;;;;;28.91;39.65;99378.81;10482537;28;20390;-75
2022/08/18 11:07:42;;;;;;;5.03;2.55;;;;;;;29.00;39.25;99386.84;10499980;28;20118;-74
2022/08/18 11:13:15;;;;;;;5.70;3.30;;;;;;;28.78;39.81;99392.13;10484736;28;20041;-75
2022/08/18 11:18:34;;;;;;;5.30;3.25;;;;;;;28.51;41.63;99392.63;10502999;28;20032;-75
2022/08/18 11:23:43;;;;;;;5.93;3.15;;;;;;;28.64;41.01;99390.16;10503770;28;20044;-74
2022/08/18 11:28:45;;;;;;;5.75;3.70;;;;;;;28.57;42.19;99397.34;11250455;23;20047;-80
2022/08/18 11:33:47;;;;;;;11.48;3.88;;;;;;;28.53;42.27;99402.25;10465648;28;20072;-81
2022/08/18 11:38:54;;;;;;;6.50;3.50;;;;;;;28.56;41.87;99403.78;10504033;28;20048;-81
2022/08/18 11:43:58;;;;;;;8.20;3.25;;;;;;;28.52;41.97;99408.69;10533954;28;20047;-79
2022/08/18 11:49:16;;;;;;;5.93;3.47;;;;;;;28.51;42.16;99423.25;10521788;28;20048;-80
2022/08/18 11:54:37;;;;;;;6.87;4.23;;;;;;;28.22;42.13;99414.94;10512119;28;20049;-80
2022/08/18 11:59:38;;;;;;;3.80;3.50;;;;;;;27.97;42.80;99425.00;10535799;28;20064;-80
2022/08/18 12:05:01;;;;;;;7.20;3.90;;;;;;;27.94;43.48;99428.91;10536753;28;20054;-79
2022/08/18 12:10:26;;;;;;;7.75;4.13;;;;;;;27.47;44.30;99424.28;10534587;28;20040;-80
2022/08/18 12:15:32;;;;;;;5.63;3.72;;;;;;;27.39;44.60;99417.03;10526620;28;20051;-80
2022/08/18 12:20:48;;;;;;;8.38;3.17;;;;;;;27.35;45.06;99421.09;10487757;28;20052;-80
2022/08/18 12:25:51;;;;;;;5.70;4.32;;;;;;;27.29;45.63;99427.19;10525756;28;20086;-80
2022/08/18 12:30:53;;;;;;;8.80;4.00;;;;;;;27.57;45.32;99445.69;10512757;28;20483;-80
2022/08/18 12:36:15;;;;;;;6.70;3.85;;;;;;;27.49;45.43;99424.94;10531511;28;20136;-80
2022/08/18 12:41:16;;;;;;;12.65;4.20;;;;;;;27.63;44.72;99397.25;10530822;28;20100;-80
2022/08/18 12:46:25;;;;;;;9.45;3.97;;;;;;;27.82;44.50;99387.94;10532516;28;20052;-79
2022/08/18 12:51:26;;;;;;;4.80;3.90;;;;;;;27.96;45.00;99390.91;10532895;28;20048;-77
2022/08/18 12:56:31;;;;;;;8.35;4.00;;;;;;;28.32;43.45;99393.91;10533259;28;20064;-77
2022/08/18 13:01:39;;;;;;;5.55;3.92;;;;;;;28.34;43.93;99389.19;10508635;28;20104;-78
2022/08/18 13:06:52;;;;;;;;;;;;;;;28.57;42.75;99386.53;10537933;28;20032;-79
2022/08/18 13:12:03;;;;;;;9.88;4.03;;;;;;;28.69;42.53;99370.69;10532051;28;19980;-79
2022/08/18 13:17:04;;;;;;;11.25;3.88;;;;;;;28.71;42.73;99361.41;10520834;28;20436;-80
2022/08/18 13:22:12;;;;;;;5.30;4.00;;;;;;;28.64;42.90;99347.78;10529384;28;20032;-78
2022/08/18 13:27:18;;;;;;;9.30;3.78;;;;;;;28.73;43.67;99334.16;10529643;28;20048;-79
2022/08/18 13:32:24;;;;;;;6.45;4.00;;;;;;;28.83;42.81;99318.53;10547795;28;20052;-79
2022/08/18 13:37:29;;;;;;;13.00;3.80;;;;;;;28.95;43.08;99325.16;10545514;28;20064;-80
2022/08/18 13:42:41;;;;;;;11.82;5.22;;;;;;;28.94;43.34;99333.47;10535006;28;20097;-79
2022/08/18 13:47:51;;;;;;;7.78;4.55;;;;;;;29.15;43.29;99342.59;10534994;28;20431;-79
2022/08/18 13:53:01;;;;;;;8.38;4.45;;;;;;;29.20;43.32;99336.59;10517514;28;20070;-79
2022/08/18 13:58:06;;;;;;;8.23;4.22;;;;;;;29.32;43.39;99327.00;10535380;28;20044;-78
2022/08/18 14:03:22;;;;;;;7.97;4.97;;;;;;;29.51;42.61;99346.41;10531408;28;20036;-78
2022/08/18 14:08:44;;;;;;;10.63;4.55;;;;;;;29.16;43.47;99360.50;10587452;28;20043;-78
2022/08/18 14:13:45;;;;;;;9.50;5.00;;;;;;;29.18;43.95;99357.63;10590616;28;20087;-80
2022/08/18 14:29:37;;;;;;;6.57;4.88;;;;;;;28.91;44.45;99327.41;10545263;28;20059;-79
2022/08/18 14:34:48;;;;;;;9.77;5.38;;;;;;;28.87;44.84;99336.09;10588316;28;20044;-79
2022/08/18 14:39:52;;;;;;;9.27;6.20;;;;;;;28.93;44.41;99338.03;10560158;28;20032;-79
2022/08/18 14:44:56;;;;;;;15.13;6.05;;;;;;;28.80;44.79;99351.34;10594353;28;20055;-80
2022/08/18 14:50:19;;;;;;;8.32;6.13;;;;;;;28.36;46.17;99335.81;10590764;28;20074;-79
2022/08/18 14:55:23;;;;;;;6.22;5.40;;;;;;;28.27;46.73;99351.22;10593448;28;20032;-79
2022/08/18 15:00:27;;;;;;;5.70;5.10;;;;;;;28.30;46.63;99339.22;10593281;28;20058;-79
2022/08/18 15:05:32;;;;;;;6.72;6.00;;;;;;;28.52;46.44;99351.91;10593513;28;20036;-79
2022/08/18 15:10:34;;;;;;;8.73;5.57;;;;;;;28.48;46.36;99339.78;10589640;28;20073;-79
2022/08/18 15:15:36;;;;;;;8.50;5.65;;;;;;;28.20;47.22;99334.06;10592747;28;20028;-79
2022/08/18 15:26:32;;;;;;;6.20;5.60;;;;;;;27.85;48.00;99330.03;10589441;28;20067;-78
2022/08/18 15:31:36;;;;;;;12.05;6.43;;;;;;;28.12;47.04;99326.00;10573897;28;20070;-79
2022/08/18 15:36:58;;;;;;;7.43;5.97;;;;;;;27.88;47.94;99314.28;10572920;28;20043;-79
2022/08/18 15:42:14;;;;;;;8.45;6.70;;;;;;;27.91;47.37;99305.84;10569519;28;20044;-80
2022/08/18 15:47:32;;;;;;;7.35;6.50;;;;;;;28.13;47.51;99301.50;10554416;28;20040;-79
2022/08/18 15:52:53;;;;;;;6.47;5.57;;;;;;;27.72;48.38;99273.91;10570837;28;20044;-80
2022/08/18 15:58:03;;;;;;;7.35;6.28;;;;;;;27.86;48.27;99273.13;10552989;28;20040;-80
2022/08/18 16:03:15;;;;;;;6.80;6.20;;;;;;;27.74;48.24;99269.16;10583499;28;20110;-80
2022/08/18 16:08:27;;;;;;;9.65;6.78;;;;;;;27.80;48.45;99267.59;10584049;28;20040;-78
2022/08/18 16:13:29;;;;;;;7.18;5.88;;;;;;;27.53;48.84;99261.63;10578721;28;20069;-81
2022/08/18 16:18:31;;;;;;;11.35;6.00;;;;;;;27.60;48.82;99257.22;10600294;28;20085;-80
2022/08/18 16:23:33;;;;;;;7.45;6.75;;;;;;;27.54;49.03;99249.84;10598425;28;20021;-79
2022/08/18 16:28:38;;;;;;;13.93;6.60;;;;;;;27.62;48.82;99244.38;10600040;28;20110;-79
2022/08/18 16:33:39;;;;;;;6.72;6.13;;;;;;;27.57;48.93;99245.91;10599609;28;20051;-80
2022/08/18 16:38:44;;;;;;;6.22;5.63;;;;;;;27.47;49.48;99250.72;10598270;28;20035;-80
2022/08/18 16:43:48;;;;;;;6.18;5.70;;;;;;;27.49;49.82;99233.31;10596300;28;20028;-81
2022/08/18 16:48:50;;;;;;;8.05;6.13;;;;;;;27.29;50.15;99226.66;10598315;28;20036;-80
2022/08/18 16:53:53;;;;;;;6.93;5.85;;;;;;;27.28;50.26;99227.69;10581362;28;20056;-79
2022/08/18 17:04:19;;;;;;;7.38;6.43;;;;;;;27.27;50.61;99242.19;10591606;28;20127;-81
2022/08/18 17:09:22;;;;;;;5.90;5.30;;;;;;;27.30;50.83;99222.94;10571097;28;20060;-80
2022/08/18 17:14:27;;;;;;;6.63;5.95;;;;;;;27.14;50.70;99205.84;10587630;28;20122;-81
2022/08/18 17:19:32;;;;;;;7.85;6.28;;;;;;;27.07;51.00;99207.50;10594316;28;20095;-81
2022/08/18 17:24:34;;;;;;;6.82;6.22;;;;;;;27.07;50.99;99199.41;10596928;28;20047;-81
2022/08/18 17:30:05;;;;;;;6.90;6.20;;;;;;;26.91;51.48;99200.31;10595671;28;20040;-81
2022/08/18 17:35:16;;;;;;;6.55;5.95;;;;;;;26.99;51.21;99204.84;10595196;28;20031;-80
2022/08/18 17:40:25;;;;;;;7.35;5.70;;;;;;;26.98;51.43;99203.16;10572118;28;20580;-81
2022/08/18 17:45:33;;;;;;;7.25;5.57;;;;;;;26.74;51.82;99208.59;10539649;22;20385;-69
2022/08/18 17:56:38;;;;;;;10.68;5.63;;;;;;;26.77;51.35;99214.50;10462931;28;20067;-70
2022/08/18 18:01:42;;;;;;;5.82;5.22;;;;;;;26.78;51.60;99202.69;10460533;28;20052;-71
2022/08/18 18:06:44;;;;;;;5.85;5.35;;;;;;;26.61;52.02;99209.19;10426723;28;20067;-70
2022/08/18 18:11:49;;;;;;;5.82;5.38;;;;;;;26.39;52.99;99206.13;10461228;28;20068;-71
2022/08/18 18:17:02;;;;;;;6.55;5.13;;;;;;;26.47;52.45;99210.69;10445026;28;20041;-71
2022/08/18 18:22:22;;;;;;;7.22;6.20;;;;;;;26.06;54.26;99204.47;10460227;28;20068;-69
2022/08/18 18:27:39;;;;;;;9.13;7.57;;;;;;;25.76;61.02;99206.78;10442228;28;20397;-70
2022/08/18 18:32:50;;;;;;;9.43;8.52;;;;;;;25.34;64.48;99196.06;10459694;28;20465;-71
2022/08/18 18:38:21;;;;;;;7.28;6.63;;;;;;;25.22;62.98;99192.00;10443398;28;20072;-69
2022/08/18 18:43:30;;;;;;;7.95;7.38;;;;;;;25.57;60.02;99194.44;10459725;28;20049;-70
2022/08/18 18:48:46;;;;;;;7.05;6.32;;;;;;;25.42;61.77;99204.19;10458754;28;20041;-70
2022/08/18 18:54:14;;;;;;;9.38;5.90;;;;;;;25.08;63.10;99199.69;10459616;28;20041;-69
2022/08/18 19:00:13;;;;;;;6.68;5.32;;;;;;;25.01;59.41;99185.16;10460186;28;20037;-70
2022/08/18 19:05:31;;;;;;;5.38;5.00;;;;;;;24.89;60.58;99183.78;10291823;28;20055;-70
2022/08/18 19:10:44;;;;;;;7.18;6.15;;;;;;;25.22;57.59;99186.63;10291964;28;20062;-70
2022/08/18 19:15:46;;;;;;;6.07;5.57;;;;;;;25.22;57.55;99182.06;10275240;28;20081;-70
2022/08/18 19:20:52;;;;;;;6.40;5.90;;;;;;;25.10;58.06;99181.56;10290844;28;20047;-72
2022/08/18 19:26:25;;;;;;;9.10;5.70;;;;;;;25.21;57.15;99193.84;10293259;28;20056;-71
2022/08/18 19:31:35;;;;;;;5.80;5.35;;;;;;;25.27;57.04;99206.63;10291056;28;20109;-70
2022/08/18 19:37:06;;;;;;;6.35;5.80;;;;;;;25.25;57.13;99205.13;10494018;28;20468;-72
2022/08/18 19:42:19;;;;;;;7.65;6.70;;;;;;;24.91;59.03;99198.72;10493992;28;20033;-71
2022/08/18 19:47:34;;;;;;;10.27;7.70;;;;;;;24.82;59.96;99190.78;10497066;28;20049;-73
2022/08/18 19:52:51;;;;;;;8.35;7.55;;;;;;;24.64;61.25;99186.31;10493047;28;20076;-71
2022/08/18 19:58:19;;;;;;;8.07;7.55;;;;;;;24.43;62.34;99169.72;10494861;28;20047;-71
2022/08/18 20:03:51;;;;;;;9.45;8.15;;;;;;;24.05;64.69;99161.06;10492060;28;20115;-72
2022/08/18 20:09:31;;;;;;;9.05;8.43;;;;;;;23.88;65.37;99165.44;10490896;28;20059;-70
2022/08/18 20:14:38;;;;;;;8.65;7.95;;;;;;;23.90;65.72;99165.28;10491713;28;20071;-70
2022/08/18 20:20:03;;;;;;;9.52;8.75;;;;;;;23.89;66.23;99156.38;10492397;28;20052;-71
2022/08/18 20:25:29;;;;;;;;;;;;;;;23.57;67.79;99162.28;10491559;28;20116;-71
2022/08/18 20:30:32;;;;;;;9.88;9.15;;;;;;;23.59;68.29;99164.78;10491329;28;19956;-70
2022/08/18 20:35:57;;;;;;;10.40;9.57;;;;;;;23.23;71.24;99158.56;10491820;28;20383;-70
2022/08/18 20:41:19;;;;;;;9.95;9.23;;;;;;;23.23;72.16;99161.25;10490841;28;20040;-70
2022/08/18 20:46:35;;;;;;;10.63;9.93;;;;;;;23.33;71.47;99162.00;10473127;28;20037;-70
2022/08/18 20:51:47;;;;;;;9.68;8.88;;;;;;;23.11;71.78;99161.47;10461909;28;20045;-70
2022/08/18 20:56:58;;;;;;;9.52;8.65;;;;;;;23.09;71.69;99158.06;10462341;28;20490;-70
2022/08/18 21:02:06;;;;;;;9.32;8.70;;;;;;;23.19;71.43;99149.13;10462487;28;20124;-69
2022/08/18 21:07:15;;;;;;;9.18;8.38;;;;;;;23.15;70.44;99144.09;10461965;28;20120;-69
2022/08/18 21:12:26;;;;;;;9.07;8.38;;;;;;;23.35;69.28;99154.69;10462898;28;20053;-70
2022/08/18 21:17:29;;;;;;;10.25;9.18;;;;;;;23.42;69.88;99166.50;10464057;28;20052;-70
2022/08/18 21:22:32;;;;;;;10.05;9.30;;;;;;;22.94;74.02;99162.25;10461814;28;20124;-70
2022/08/18 21:27:37;;;;;;;11.63;10.85;;;;;;;22.75;76.20;99157.78;10461240;28;20068;-70
2022/08/18 21:32:40;;;;;;;11.57;10.77;;;;;;;22.66;78.49;99172.06;10461292;28;20502;-70
2022/08/18 21:37:53;;;;;;;13.63;12.27;;;;;;;22.57;79.81;99183.66;10461559;28;20040;-70
2022/08/18 21:42:54;;;;;;;11.50;10.70;;;;;;;22.40;80.62;99204.88;10460720;28;20128;-70
2022/08/18 21:48:02;;;;;;;11.80;10.98;;;;;;;22.28;81.00;99178.41;10460931;28;20083;-70
2022/08/18 21:53:10;;;;;;;12.43;11.60;;;;;;;22.24;81.44;99177.84;10459635;28;20052;-70
2022/08/18 21:58:15;;;;;;;12.68;11.88;;;;;;;22.09;82.71;99166.72;10459829;28;20466;-70
2022/08/18 22:03:26;;;;;;;13.17;12.27;;;;;;;22.03;83.17;99169.94;10462526;28;20064;-70
2022/08/18 22:08:43;;;;;;;14.57;13.68;;;;;;;21.85;84.47;99160.94;10458345;28;20382;-70
2022/08/18 22:13:59;;;;;;;13.35;12.65;;;;;;;21.90;84.10;99169.38;10459879;28;20037;-69
2022/08/18 22:19:07;;;;;;;12.57;11.77;;;;;;;22.10;82.95;99188.97;10460157;28;20211;-70
2022/08/18 22:24:20;;;;;;;12.68;11.98;;;;;;;22.02;83.45;99204.88;10460675;28;20412;-70
2022/08/18 22:29:33;;;;;;;11.45;10.75;;;;;;;22.16;81.98;99201.78;10457702;28;20460;-70
2022/08/18 22:34:35;;;;;;;10.48;9.88;;;;;;;22.10;81.99;99205.84;10458951;28;20037;-70
2022/08/18 22:39:42;;;;;;;11.82;10.98;;;;;;;22.19;80.96;99204.19;10457478;28;20076;-70
2022/08/18 22:44:45;;;;;;;12.13;11.43;;;;;;;22.24;80.92;99198.41;10458694;28;20076;-70
2022/08/18 22:49:47;;;;;;;12.43;11.63;;;;;;;22.09;81.68;99185.44;10458817;28;20124;-70
2022/08/18 22:54:48;;;;;;;14.20;13.10;;;;;;;22.10;81.78;99187.13;10457430;28;20040;-70
2022/08/18 22:59:53;;;;;;;11.77;11.07;;;;;;;21.97;82.45;99188.41;10457283;28;20049;-70
2022/08/18 23:04:55;;;;;;;12.38;11.55;;;;;;;21.94;83.14;99169.94;10456145;28;20045;-70
2022/08/18 23:09:57;;;;;;;13.05;12.25;;;;;;;22.04;82.12;99173.44;10458542;28;20037;-70
2022/08/18 23:15:05;;;;;;;12.80;12.02;;;;;;;22.08;81.78;99169.50;10457213;28;20049;-70
2022/08/18 23:20:12;;;;;;;12.13;11.38;;;;;;;22.09;81.54;99158.69;10457659;28;20040;-70
2022/08/18 23:25:19;;;;;;;11.18;10.38;;;;;;;22.02;81.09;99160.22;10456360;28;20044;-70
2022/08/18 23:30:21;;;;;;;11.60;10.88;;;;;;;22.06;81.02;99140.22;10457754;28;20103;-70
2022/08/18 23:35:22;;;;;;;12.52;11.45;;;;;;;22.00;81.27;99137.25;10455938;28;20041;-70
2022/08/18 23:40:25;;;;;;;12.43;11.52;;;;;;;21.88;82.32;99140.09;10456970;28;20442;-70
2022/08/18 23:45:27;;;;;;;12.75;11.98;;;;;;;21.86;82.17;99139.38;10451003;22;20053;-70
2022/08/18 23:50:30;;;;;;;15.52;14.43;;;;;;;21.74;83.10;99147.72;10416224;28;20053;-69
2022/08/18 23:55:32;;;;;;;15.55;14.63;;;;;;;21.63;84.32;99152.22;10415968;28;20042;-69
